createdAt,value
2023-02-02T00:01:02.179Z,15.55
2023-02-02T00:04:05.185Z,17.67
2023-02-02T00:07:09.153Z,16.58
2023-02-02T00:10:12.049Z,17.90
2023-02-02T00:13:14.888Z,16.43
2023-02-02T00:16:26.678Z,15.75
2023-02-02T00:19:31.701Z,16.42
2023-02-02T00:22:34.601Z,16.63
2023-02-02T00:25:37.295Z,16.55
2023-02-02T00:28:40.483Z,16.20
2023-02-02T00:31:43.292Z,15.40
2023-02-02T00:34:46.269Z,16.65
2023-02-02T00:37:49.069Z,15.45
2023-02-02T00:40:52.351Z,16.63
2023-02-02T00:44:14.004Z,14.73
2023-02-02T00:47:18.071Z,15.27
2023-02-02T00:50:26.951Z,16.25
2023-02-02T00:53:29.811Z,15.30
2023-02-02T00:56:32.646Z,15.65
2023-02-02T00:59:36.002Z,15.50
2023-02-02T01:02:38.925Z,16.00
2023-02-02T01:05:42.474Z,17.15
2023-02-02T01:08:46.463Z,16.00
2023-02-02T01:11:49.387Z,14.95
2023-02-02T01:14:52.123Z,15.50
2023-02-02T01:17:55.015Z,16.20
2023-02-02T01:21:02.266Z,16.10
2023-02-02T01:24:05.259Z,15.75
2023-02-02T01:27:08.022Z,16.65
2023-02-02T01:30:11.741Z,16.03
2023-02-02T01:33:14.500Z,16.40
2023-02-02T01:36:20.941Z,16.33
2023-02-02T01:39:23.744Z,15.90
2023-02-02T01:42:26.739Z,15.85
2023-02-02T01:45:30.160Z,15.93
2023-02-02T01:48:35.433Z,17.08
2023-02-02T01:51:45.857Z,16.50
2023-02-02T01:54:53.680Z,15.88
2023-02-02T01:58:02.218Z,15.15
2023-02-02T02:01:05.971Z,15.07
2023-02-02T02:04:08.879Z,15.85
2023-02-02T02:07:13.097Z,17.42
2023-02-02T02:10:18.705Z,16.15
2023-02-02T02:13:44.111Z,16.33
2023-02-02T02:17:02.435Z,16.43
2023-02-02T02:20:33.297Z,16.70
2023-02-02T02:24:14.243Z,16.17
2023-02-02T02:27:37.397Z,16.60
2023-02-02T02:30:43.553Z,16.88
2023-02-02T02:34:07.503Z,16.00
2023-02-02T02:37:40.028Z,16.88
2023-02-02T02:40:49.734Z,17.00
2023-02-02T02:44:00.374Z,16.58
2023-02-02T02:47:03.840Z,16.15
2023-02-02T02:50:07.099Z,15.23
2023-02-02T02:53:20.296Z,15.93
2023-02-02T02:56:53.995Z,15.43
2023-02-02T03:00:24.392Z,16.08
2023-02-02T03:03:42.183Z,16.48
2023-02-02T03:06:57.822Z,15.40
2023-02-02T03:10:02.704Z,15.93
2023-02-02T03:13:10.530Z,17.40
2023-02-02T03:16:15.856Z,15.85
2023-02-02T03:19:19.026Z,16.20
2023-02-02T03:22:21.899Z,15.37
2023-02-02T03:25:25.033Z,16.13
2023-02-02T03:28:28.387Z,15.70
2023-02-02T03:31:31.313Z,15.82
2023-02-02T03:34:34.129Z,15.88
2023-02-02T03:37:38.748Z,15.70
2023-02-02T03:40:41.774Z,15.30
2023-02-02T03:43:44.863Z,15.70
2023-02-02T03:46:49.223Z,14.93
2023-02-02T03:49:52.316Z,16.98
2023-02-02T03:52:55.614Z,15.03
2023-02-02T03:55:58.387Z,15.43
2023-02-02T03:59:01.065Z,15.60
2023-02-02T04:02:04.286Z,14.98
2023-02-02T04:05:07.254Z,15.43
2023-02-02T04:08:10.070Z,14.77
2023-02-02T04:11:13.161Z,14.27
2023-02-02T04:14:16.065Z,15.50
2023-02-02T04:17:18.830Z,14.52
2023-02-02T04:20:21.572Z,13.80
2023-02-02T04:23:24.426Z,14.83
2023-02-02T04:26:27.355Z,14.27
2023-02-02T04:29:34.342Z,15.27
2023-02-02T04:32:39.031Z,13.75
2023-02-02T04:35:43.220Z,14.20
2023-02-02T04:38:49.854Z,13.80
2023-02-02T04:41:52.793Z,13.98
2023-02-02T04:44:55.554Z,14.18
2023-02-02T04:47:58.297Z,13.95
2023-02-02T04:51:02.572Z,13.82
2023-02-02T04:54:06.280Z,12.70
2023-02-02T04:57:09.264Z,13.55
2023-02-02T05:00:13.418Z,13.55
2023-02-02T05:03:16.345Z,13.43
2023-02-02T05:06:19.828Z,13.02
2023-02-02T05:09:22.994Z,12.73
2023-02-02T05:12:25.854Z,13.35
2023-02-02T05:15:29.407Z,13.85
2023-02-02T05:18:33.708Z,13.00
2023-02-02T05:21:36.700Z,13.68
2023-02-02T05:24:39.482Z,12.70
2023-02-02T05:27:46.587Z,12.93
2023-02-02T05:30:49.993Z,13.95
2023-02-02T05:33:53.004Z,12.70
2023-02-02T05:36:55.809Z,13.88
2023-02-02T05:39:58.633Z,13.30
2023-02-02T05:43:01.385Z,12.15
2023-02-02T05:46:08.940Z,12.77
2023-02-02T05:49:14.521Z,12.00
2023-02-02T05:52:22.252Z,12.88
2023-02-02T05:55:25.397Z,11.87
2023-02-02T05:58:28.727Z,12.18
2023-02-02T06:01:31.490Z,12.18
2023-02-02T06:04:34.320Z,11.48
2023-02-02T06:07:36.996Z,11.48
2023-02-02T06:10:42.676Z,11.27
2023-02-02T06:13:47.953Z,12.07
2023-02-02T06:16:50.744Z,12.10
2023-02-02T06:19:53.558Z,11.32
2023-02-02T06:22:57.792Z,11.80
2023-02-02T06:26:03.685Z,12.33
2023-02-02T06:29:07.060Z,11.82
2023-02-02T06:32:09.862Z,11.35
2023-02-02T06:35:12.689Z,11.88
2023-02-02T06:38:15.583Z,11.90
2023-02-02T06:41:21.109Z,11.30
2023-02-02T06:44:23.898Z,11.82
2023-02-02T06:47:26.983Z,11.18
2023-02-02T06:50:30.271Z,11.43
2023-02-02T06:53:34.193Z,12.40
2023-02-02T06:56:36.934Z,11.73
2023-02-02T06:59:41.795Z,11.55
2023-02-02T07:02:47.385Z,11.20
2023-02-02T07:05:50.257Z,11.48
2023-02-02T07:09:01.021Z,11.63
2023-02-02T07:12:06.587Z,11.77
2023-02-02T07:15:09.908Z,11.18
2023-02-02T07:18:12.882Z,11.38
2023-02-02T07:21:21.398Z,11.65
2023-02-02T07:24:24.844Z,10.80
2023-02-02T07:27:27.677Z,10.30
2023-02-02T07:30:30.616Z,10.70
2023-02-02T07:33:38.831Z,11.18
2023-02-02T07:36:41.612Z,10.13
2023-02-02T07:39:44.345Z,10.40
2023-02-02T07:42:48.998Z,10.30
2023-02-02T07:45:51.672Z,9.93
2023-02-02T07:48:56.099Z,10.07
2023-02-02T07:51:59.017Z,9.38
2023-02-02T07:55:13.890Z,10.00
2023-02-02T07:58:18.369Z,9.40
2023-02-02T08:01:23.614Z,9.20
2023-02-02T08:04:35.955Z,9.27
2023-02-02T08:07:39.248Z,9.10
2023-02-02T08:10:51.592Z,9.52
2023-02-02T08:14:00.560Z,9.43
2023-02-02T08:17:04.333Z,9.20
2023-02-02T08:20:07.847Z,9.60
2023-02-02T08:23:15.864Z,8.77
2023-02-02T08:29:46.326Z,8.57
2023-02-02T08:32:49.526Z,8.55
2023-02-02T08:35:52.285Z,8.98
2023-02-02T08:38:55.406Z,8.45
2023-02-02T08:41:58.572Z,8.45
2023-02-02T08:46:02.881Z,8.50
2023-02-02T08:48:25.453Z,8.15
2023-02-02T08:51:29.479Z,9.07
2023-02-02T08:54:33.915Z,8.23
2023-02-02T08:57:39.450Z,8.13
2023-02-02T09:00:42.376Z,8.13
2023-02-02T09:03:47.183Z,7.80
2023-02-02T09:06:50.471Z,8.48
2023-02-02T09:09:55.915Z,8.13
2023-02-02T09:12:59.389Z,8.63
2023-02-02T09:16:03.878Z,7.70
2023-02-02T09:19:07.345Z,7.38
2023-02-02T09:22:10.413Z,8.27
2023-02-02T09:25:13.538Z,6.93
2023-02-02T09:28:17.412Z,6.90
2023-02-02T09:31:21.831Z,6.70
2023-02-02T09:34:31.549Z,7.68
2023-02-02T09:37:37.520Z,6.75
2023-02-02T09:40:42.308Z,7.13
2023-02-02T09:44:19.298Z,6.75
2023-02-02T09:47:28.526Z,6.00
2023-02-02T09:50:47.030Z,5.75
2023-02-02T09:54:06.855Z,5.78
2023-02-02T09:57:21.905Z,5.40
2023-02-02T10:00:27.037Z,5.70
2023-02-02T10:03:36.435Z,5.27
2023-02-02T10:06:43.870Z,4.82
2023-02-02T10:10:18.256Z,5.63
2023-02-02T10:13:33.638Z,5.88
2023-02-02T10:16:39.868Z,5.90
2023-02-02T10:19:44.102Z,5.63
2023-02-02T10:22:48.899Z,5.97
2023-02-02T10:25:57.517Z,6.32
2023-02-02T10:29:09.804Z,5.57
2023-02-02T10:32:25.167Z,5.65
2023-02-02T10:35:32.145Z,5.57
2023-02-02T10:38:59.478Z,5.57
2023-02-02T10:42:07.925Z,6.28
2023-02-02T10:45:19.856Z,5.00
2023-02-02T10:48:35.497Z,5.50
2023-02-02T10:51:41.317Z,5.20
2023-02-02T10:55:06.407Z,4.78
2023-02-02T10:58:21.035Z,4.80
2023-02-02T11:01:24.749Z,5.13
2023-02-02T11:04:48.203Z,3.88
2023-02-02T11:07:54.674Z,4.40
2023-02-02T11:10:59.014Z,4.50
2023-02-02T11:14:09.847Z,4.65
2023-02-02T11:17:40.367Z,4.13
2023-02-02T11:20:46.717Z,4.80
2023-02-02T11:24:30.751Z,4.10
2023-02-02T11:27:40.076Z,3.67
2023-02-02T11:30:48.485Z,4.30
2023-02-02T11:33:51.396Z,4.45
2023-02-02T11:37:00.385Z,4.20
2023-02-02T11:40:36.444Z,4.33
2023-02-02T11:43:50.593Z,3.90
2023-02-02T11:47:00.727Z,4.07
2023-02-02T11:50:05.074Z,3.90
2023-02-02T11:53:43.930Z,4.32
2023-02-02T11:56:55.469Z,3.80
2023-02-02T12:00:08.063Z,3.72
2023-02-02T12:03:27.285Z,3.90
2023-02-02T12:06:32.900Z,4.00
2023-02-02T12:09:35.790Z,4.20
2023-02-02T12:12:50.969Z,3.87
2023-02-02T12:15:59.375Z,3.80
2023-02-02T12:19:14.050Z,3.60
2023-02-02T12:22:30.686Z,3.83
2023-02-02T12:25:45.253Z,4.30
2023-02-02T12:29:15.006Z,3.80
2023-02-02T12:32:35.092Z,3.53
2023-02-02T12:35:52.706Z,3.40
2023-02-02T12:39:11.146Z,3.65
2023-02-02T12:42:33.922Z,3.53
2023-02-02T12:46:12.212Z,3.57
2023-02-02T12:49:44.408Z,3.50
2023-02-02T12:53:08.890Z,3.42
2023-02-02T12:56:35.729Z,3.72
2023-02-02T13:00:12.882Z,3.40
2023-02-02T13:03:44.322Z,3.97
2023-02-02T13:07:05.149Z,4.03
2023-02-02T13:10:26.565Z,4.00
2023-02-02T13:13:38.204Z,3.80
2023-02-02T13:16:48.595Z,3.70
2023-02-02T13:19:59.455Z,3.40
2023-02-02T13:23:28.968Z,3.50
2023-02-02T13:26:37.892Z,3.60
2023-02-02T13:29:51.473Z,3.65
2023-02-02T13:32:58.239Z,3.65
2023-02-02T13:36:10.188Z,3.63
2023-02-02T13:39:18.079Z,3.70
2023-02-02T13:42:39.283Z,3.38
2023-02-02T13:46:10.903Z,2.90
2023-02-02T13:49:33.948Z,3.88
2023-02-02T13:53:04.103Z,3.50
2023-02-02T13:56:18.576Z,3.42
2023-02-02T13:59:30.445Z,3.55
2023-02-02T14:02:41.954Z,3.20
2023-02-02T14:06:01.332Z,3.47
2023-02-02T14:09:05.958Z,3.40
2023-02-02T14:12:10.977Z,3.83
2023-02-02T14:15:13.797Z,4.05
2023-02-02T14:18:48.172Z,4.30
2023-02-02T14:22:19.797Z,3.72
2023-02-02T14:25:34.318Z,4.23
2023-02-02T14:28:46.751Z,3.75
2023-02-02T14:31:54.845Z,3.75
2023-02-02T14:34:58.384Z,3.85
2023-02-02T14:38:25.053Z,3.88
2023-02-02T14:42:08.966Z,4.37
2023-02-02T14:45:11.625Z,4.38
2023-02-02T14:48:25.905Z,4.50
2023-02-02T14:51:31.880Z,4.30
2023-02-02T14:54:41.772Z,5.03
2023-02-02T14:57:45.242Z,4.03
2023-02-02T15:01:05.456Z,4.13
2023-02-02T15:04:20.229Z,4.18
2023-02-02T15:07:22.873Z,4.50
2023-02-02T15:11:26.443Z,4.20
2023-02-02T15:15:12.389Z,4.00
2023-02-02T15:18:44.295Z,4.13
2023-02-02T15:21:49.337Z,4.30
2023-02-02T15:24:53.939Z,3.67
2023-02-02T15:28:26.032Z,3.75
2023-02-02T15:31:47.611Z,4.07
2023-02-02T15:34:54.634Z,4.13
2023-02-02T15:38:04.809Z,4.05
2023-02-02T15:41:18.694Z,4.07
2023-02-02T15:44:27.299Z,4.35
2023-02-02T15:47:36.429Z,4.50
2023-02-02T15:50:46.405Z,3.78
2023-02-02T15:53:51.970Z,4.25
2023-02-02T15:56:56.220Z,4.07
2023-02-02T16:00:00.731Z,4.13
2023-02-02T16:03:19.790Z,3.40
2023-02-02T16:06:22.953Z,3.70
2023-02-02T16:09:28.814Z,3.55
2023-02-02T16:12:31.751Z,3.95
2023-02-02T16:15:34.583Z,4.05
2023-02-02T16:18:38.070Z,3.90
2023-02-02T16:22:04.502Z,3.83
2023-02-02T16:25:15.443Z,3.85
2023-02-02T16:28:21.547Z,3.55
2023-02-02T16:31:25.292Z,4.30
2023-02-02T16:34:49.139Z,3.43
2023-02-02T16:37:52.094Z,3.63
2023-02-02T16:41:26.190Z,3.85
2023-02-02T16:44:39.345Z,3.95
2023-02-02T16:47:42.226Z,3.92
2023-02-02T16:50:46.889Z,3.90
2023-02-02T16:53:57.909Z,3.78
2023-02-02T16:57:03.512Z,3.92
2023-02-02T17:00:09.167Z,4.03
2023-02-02T17:03:17.403Z,4.00
2023-02-02T17:06:42.104Z,2.90
2023-02-02T17:09:49.908Z,3.47
2023-02-02T17:12:56.586Z,4.03
2023-02-02T17:16:00.784Z,3.65
2023-02-02T17:19:04.429Z,3.58
2023-02-02T17:22:28.167Z,3.07
2023-02-02T17:25:42.441Z,3.15
2023-02-02T17:28:47.067Z,3.85
2023-02-02T17:31:54.736Z,3.30
2023-02-02T17:34:59.475Z,3.58
2023-02-02T17:38:05.527Z,3.33
2023-02-02T17:41:12.625Z,3.58
2023-02-02T17:44:15.963Z,4.07
2023-02-02T17:47:19.659Z,3.33
2023-02-02T17:50:24.817Z,3.20
2023-02-02T17:53:35.051Z,3.53
2023-02-02T17:56:39.350Z,3.40
2023-02-02T17:59:42.432Z,3.45
2023-02-02T18:02:48.105Z,3.88
2023-02-02T18:05:51.550Z,3.53
2023-02-02T18:08:55.983Z,3.03
2023-02-02T18:11:59.796Z,3.05
2023-02-02T18:15:09.512Z,2.80
2023-02-02T18:18:12.676Z,3.50
2023-02-02T18:21:16.084Z,3.60
2023-02-02T18:24:19.562Z,3.17
2023-02-02T18:27:23.359Z,3.35
2023-02-02T18:30:30.430Z,3.45
2023-02-02T18:33:37.262Z,3.00
2023-02-02T18:36:40.954Z,2.75
2023-02-02T18:39:45.571Z,2.90
2023-02-02T18:42:49.615Z,3.55
2023-02-02T18:46:01.693Z,3.20
2023-02-02T18:49:06.323Z,3.50
2023-02-02T18:52:09.979Z,3.22
2023-02-02T18:55:13.882Z,3.30
2023-02-02T18:58:17.216Z,3.20
2023-02-02T19:01:21.662Z,2.90
2023-02-02T19:04:25.350Z,3.28
2023-02-02T19:07:47.288Z,3.03
2023-02-02T19:10:58.801Z,2.93
2023-02-02T19:14:02.815Z,2.70
2023-02-02T19:17:28.207Z,3.08
2023-02-02T19:20:32.105Z,3.45
2023-02-02T19:23:38.196Z,3.22
2023-02-02T19:26:46.843Z,2.63
2023-02-02T19:29:55.874Z,2.97
2023-02-02T19:33:02.672Z,3.10
2023-02-02T19:36:13.775Z,2.88
2023-02-02T19:39:25.554Z,3.00
2023-02-02T19:42:35.963Z,2.77
2023-02-02T19:45:41.908Z,2.90
2023-02-02T19:48:45.717Z,3.40
2023-02-02T19:51:58.518Z,3.63
2023-02-02T19:55:02.188Z,2.67
2023-02-02T19:58:18.635Z,2.90
2023-02-02T20:01:27.963Z,2.58
2023-02-02T20:04:32.980Z,2.50
2023-02-02T20:07:39.102Z,2.65
2023-02-02T20:10:44.189Z,2.63
2023-02-02T20:13:48.702Z,2.83
2023-02-02T20:16:56.755Z,2.83
2023-02-02T20:20:01.961Z,2.70
2023-02-02T20:23:25.968Z,2.60
2023-02-02T20:26:37.673Z,2.50
2023-02-02T20:29:45.928Z,2.60
2023-02-02T20:32:55.365Z,2.75
2023-02-02T20:35:59.079Z,2.83
2023-02-02T20:39:29.626Z,2.97
2023-02-02T20:42:33.375Z,2.70
2023-02-02T20:45:38.256Z,2.00
2023-02-02T20:48:42.297Z,2.78
2023-02-02T20:51:45.967Z,2.75
2023-02-02T20:54:51.526Z,2.80
2023-02-02T20:57:56.640Z,2.50
2023-02-02T21:01:00.397Z,2.80
2023-02-02T21:04:07.168Z,2.55
2023-02-02T21:07:13.389Z,2.65
2023-02-02T21:10:17.639Z,2.60
2023-02-02T21:13:20.875Z,2.75
2023-02-02T21:16:25.063Z,2.57
2023-02-02T21:19:28.237Z,3.10
2023-02-02T21:22:31.403Z,2.45
2023-02-02T21:25:34.327Z,2.28
2023-02-02T21:28:37.199Z,2.50
2023-02-02T21:31:40.687Z,2.57
2023-02-02T21:34:43.880Z,2.67
2023-02-02T21:37:50.595Z,2.65
2023-02-02T21:40:56.266Z,2.63
2023-02-02T21:44:00.529Z,2.72
2023-02-02T21:47:09.210Z,2.67
2023-02-02T21:50:19.241Z,2.88
2023-02-02T21:53:24.042Z,2.60
2023-02-02T21:56:30.931Z,2.67
2023-02-02T21:59:36.791Z,2.72
2023-02-02T22:02:44.576Z,2.37
2023-02-02T22:05:47.881Z,2.95
2023-02-02T22:08:53.781Z,2.85
2023-02-02T22:12:02.154Z,2.72
2023-02-02T22:15:21.212Z,2.60
2023-02-02T22:18:42.098Z,2.67
2023-02-02T22:21:44.773Z,2.90
2023-02-02T22:25:21.023Z,2.83
2023-02-02T22:28:32.636Z,2.47
2023-02-02T22:31:35.476Z,2.38
2023-02-02T22:34:38.170Z,2.80
2023-02-02T22:37:40.878Z,2.70
2023-02-02T22:40:44.223Z,2.85
2023-02-02T22:43:47.005Z,2.60
2023-02-02T22:46:49.767Z,3.10
2023-02-02T22:49:52.433Z,3.00
2023-02-02T22:52:55.397Z,2.97
2023-02-02T22:55:58.444Z,2.95
2023-02-02T22:59:05.141Z,3.22
2023-02-02T23:02:07.912Z,2.90
2023-02-02T23:05:19.402Z,3.00
2023-02-02T23:08:22.210Z,3.13
2023-02-02T23:11:25.112Z,2.97
2023-02-02T23:14:31.222Z,3.08
2023-02-02T23:17:35.391Z,2.92
2023-02-02T23:20:41.318Z,3.30
2023-02-02T23:23:44.729Z,2.95
2023-02-02T23:26:47.353Z,2.97
2023-02-02T23:29:50.151Z,3.10
2023-02-02T23:32:53.387Z,2.97
2023-02-02T23:35:56.200Z,2.97
2023-02-02T23:38:58.952Z,2.85
2023-02-02T23:42:01.688Z,2.88
2023-02-02T23:45:05.287Z,3.10
2023-02-02T23:48:09.217Z,2.63
2023-02-02T23:51:12.500Z,2.63
2023-02-02T23:54:15.487Z,2.55
2023-02-02T23:57:18.283Z,2.78
